createdAt,value
2023-04-19T00:00:39.433Z,97324.00
2023-04-19T00:03:07.722Z,97317.00
2023-04-19T00:05:35.529Z,97309.00
2023-04-19T00:08:03.315Z,97318.00
2023-04-19T00:10:30.525Z,97313.00
2023-04-19T00:12:57.745Z,97310.00
2023-04-19T00:15:24.972Z,97308.00
2023-04-19T00:17:52.202Z,97307.00
2023-04-19T00:20:20.602Z,97296.00
2023-04-19T00:22:47.992Z,97286.00
2023-04-19T00:25:15.243Z,97280.00
2023-04-19T00:27:42.404Z,97291.00
2023-04-19T00:30:09.952Z,97287.00
2023-04-19T00:32:37.226Z,97278.00
2023-04-19T00:35:04.714Z,97277.00
2023-04-19T00:37:31.907Z,97281.00
2023-04-19T00:39:59.074Z,97276.00
2023-04-19T00:42:26.230Z,97277.00
2023-04-19T00:44:53.405Z,97279.00
2023-04-19T00:47:20.824Z,97272.00
2023-04-19T00:49:48.139Z,97278.00
2023-04-19T00:52:15.371Z,97276.00
2023-04-19T00:54:44.051Z,97275.00
2023-04-19T00:57:11.291Z,97275.00
2023-04-19T00:59:38.566Z,97275.00
2023-04-19T01:02:07.387Z,97271.00
2023-04-19T01:04:34.818Z,97275.00
2023-04-19T01:07:03.207Z,97277.00
2023-04-19T01:09:30.360Z,97277.00
2023-04-19T01:11:57.518Z,97276.00
2023-04-19T01:14:24.697Z,97272.00
2023-04-19T01:16:53.042Z,97271.00
2023-04-19T01:19:21.290Z,97268.00
2023-04-19T01:21:48.875Z,97259.00
2023-04-19T01:24:16.237Z,97268.00
2023-04-19T01:26:43.583Z,97260.00
2023-04-19T01:29:25.533Z,97254.00
2023-04-19T01:32:35.658Z,97261.00
2023-04-19T01:35:02.961Z,97269.00
2023-04-19T01:37:30.178Z,97262.00
2023-04-19T01:39:57.361Z,97261.00
2023-04-19T01:42:24.535Z,97258.00
2023-04-19T01:44:51.716Z,97258.00
2023-04-19T01:47:18.908Z,97248.00
2023-04-19T01:49:46.071Z,97253.00
2023-04-19T01:52:13.241Z,97245.00
2023-04-19T01:54:40.461Z,97248.00
2023-04-19T01:57:07.626Z,97241.00
2023-04-19T01:59:34.789Z,97236.00
2023-04-19T02:02:02.133Z,97242.00
2023-04-19T02:04:30.509Z,97242.00
2023-04-19T02:06:57.689Z,97236.00
2023-04-19T02:09:24.888Z,97241.00
2023-04-19T02:11:52.074Z,97233.00
2023-04-19T02:14:19.258Z,97239.00
2023-04-19T02:16:46.474Z,97236.00
2023-04-19T02:19:13.987Z,97235.00
2023-04-19T02:21:41.140Z,97238.00
2023-04-19T02:24:08.483Z,97228.00
2023-04-19T02:26:35.717Z,97235.00
2023-04-19T02:29:04.508Z,97240.00
2023-04-19T02:31:33.594Z,97226.00
2023-04-19T02:34:00.804Z,97225.00
2023-04-19T02:36:27.995Z,97232.00
2023-04-19T02:38:55.208Z,97234.00
2023-04-19T02:41:22.392Z,97233.00
2023-04-19T02:43:49.558Z,97230.00
2023-04-19T02:46:17.223Z,97227.00
2023-04-19T02:48:44.444Z,97234.00
2023-04-19T02:51:18.278Z,97229.00
2023-04-19T02:53:45.524Z,97227.00
2023-04-19T02:56:12.812Z,97229.00
2023-04-19T02:58:39.986Z,97228.00
2023-04-19T03:01:07.290Z,97226.00
2023-04-19T03:03:34.617Z,97231.00
2023-04-19T03:06:02.041Z,97223.00
2023-04-19T03:08:29.393Z,97218.00
2023-04-19T03:10:56.594Z,97238.00
2023-04-19T03:13:23.746Z,97221.00
2023-04-19T03:15:51.219Z,97223.00
2023-04-19T03:18:18.466Z,97223.00
2023-04-19T03:20:45.941Z,97227.00
2023-04-19T03:23:13.083Z,97221.00
2023-04-19T03:25:40.392Z,97224.00
2023-04-19T03:28:07.574Z,97215.00
2023-04-19T03:30:34.723Z,97213.00
2023-04-19T03:33:01.957Z,97219.00
2023-04-19T03:35:30.882Z,97211.00
2023-04-19T03:37:58.288Z,97204.00
2023-04-19T03:40:25.484Z,97201.00
2023-04-19T03:42:52.684Z,97217.00
2023-04-19T03:45:20.272Z,97208.00
2023-04-19T03:47:47.486Z,97206.00
2023-04-19T03:50:14.854Z,97210.00
2023-04-19T03:52:42.100Z,97214.00
2023-04-19T03:55:10.018Z,97208.00
2023-04-19T03:57:37.333Z,97199.00
2023-04-19T04:00:08.812Z,97206.00
2023-04-19T04:02:39.840Z,97198.00
2023-04-19T04:05:07.821Z,97203.00
2023-04-19T04:07:35.116Z,97206.00
2023-04-19T04:10:02.364Z,97199.00
2023-04-19T04:12:29.533Z,97202.00
2023-04-19T04:14:56.697Z,97199.00
2023-04-19T04:17:24.516Z,97208.00
2023-04-19T04:19:51.796Z,97208.00
2023-04-19T04:22:19.028Z,97216.00
2023-04-19T04:24:47.257Z,97212.00
2023-04-19T04:27:14.843Z,97206.00
2023-04-19T04:29:42.014Z,97214.00
2023-04-19T04:32:10.620Z,97212.00
2023-04-19T04:34:39.534Z,97213.00
2023-04-19T04:37:08.661Z,97209.00
2023-04-19T04:39:39.225Z,97217.00
2023-04-19T04:42:08.824Z,97216.00
2023-04-19T04:44:39.770Z,97215.00
2023-04-19T04:47:07.173Z,97216.00
2023-04-19T04:49:34.343Z,97221.00
2023-04-19T04:52:01.557Z,97214.00
2023-04-19T04:54:28.732Z,97217.00
2023-04-19T04:56:55.937Z,97220.00
2023-04-19T04:59:23.099Z,97215.00
2023-04-19T05:01:50.659Z,97212.00
2023-04-19T05:04:18.362Z,97219.00
2023-04-19T05:06:45.888Z,97218.00
2023-04-19T05:09:13.049Z,97224.00
2023-04-19T05:11:40.419Z,97220.00
2023-04-19T05:14:07.683Z,97216.00
2023-04-19T05:16:34.915Z,97222.00
2023-04-19T05:19:02.175Z,97219.00
2023-04-19T05:21:29.386Z,97209.00
2023-04-19T05:23:56.547Z,97211.00
2023-04-19T05:26:23.717Z,97215.00
2023-04-19T05:28:50.895Z,97212.00
2023-04-19T05:31:18.226Z,97216.00
2023-04-19T05:33:45.510Z,97211.00
2023-04-19T05:36:13.008Z,97218.00
2023-04-19T05:38:40.154Z,97221.00
2023-04-19T05:41:07.326Z,97213.00
2023-04-19T05:43:34.509Z,97227.00
2023-04-19T05:46:01.729Z,97228.00
2023-04-19T05:48:29.064Z,97229.00
2023-04-19T05:50:58.011Z,97223.00
2023-04-19T05:53:25.210Z,97227.00
2023-04-19T05:55:52.665Z,97226.00
2023-04-19T05:58:19.895Z,97230.00
2023-04-19T06:00:48.848Z,97229.00
2023-04-19T06:03:16.368Z,97231.00
2023-04-19T06:05:43.816Z,97216.00
2023-04-19T06:08:11.448Z,97225.00
2023-04-19T06:10:51.761Z,97226.00
2023-04-19T06:13:21.838Z,97225.00
2023-04-19T06:15:49.788Z,97225.00
2023-04-19T06:18:19.367Z,97227.00
2023-04-19T06:20:47.388Z,97234.00
2023-04-19T06:23:15.214Z,97240.00
2023-04-19T06:25:42.632Z,97232.00
2023-04-19T06:28:09.779Z,97237.00
2023-04-19T06:30:37.045Z,97232.00
2023-04-19T06:33:04.321Z,97227.00
2023-04-19T06:35:32.305Z,97228.00
2023-04-19T06:38:00.076Z,97232.00
2023-04-19T06:40:29.310Z,97236.00
2023-04-19T06:42:56.697Z,97232.00
2023-04-19T06:45:23.995Z,97227.00
2023-04-19T06:47:51.359Z,97238.00
2023-04-19T06:50:18.694Z,97237.00
2023-04-19T06:52:45.848Z,97236.00
2023-04-19T06:55:13.201Z,97240.00
2023-04-19T06:57:40.816Z,97227.00
2023-04-19T07:00:08.629Z,97235.00
2023-04-19T07:02:35.978Z,97239.00
2023-04-19T07:05:03.796Z,97229.00
2023-04-19T07:07:31.068Z,97237.00
2023-04-19T07:09:58.276Z,97236.00
2023-04-19T07:12:25.544Z,97230.00
2023-04-19T07:14:56.376Z,97228.00
2023-04-19T07:17:23.950Z,97233.00
2023-04-19T07:19:51.290Z,97230.00
2023-04-19T07:22:18.564Z,97229.00
2023-04-19T07:24:45.791Z,97213.00
2023-04-19T07:27:14.324Z,97217.00
2023-04-19T07:29:41.539Z,97215.00
2023-04-19T07:32:08.857Z,97226.00
2023-04-19T07:34:37.883Z,97225.00
2023-04-19T07:37:05.270Z,97217.00
2023-04-19T07:39:32.606Z,97216.00
2023-04-19T07:42:01.784Z,97218.00
2023-04-19T07:44:29.029Z,97215.00
2023-04-19T07:46:56.312Z,97225.00
2023-04-19T07:49:23.655Z,97216.00
2023-04-19T07:51:50.856Z,97222.00
2023-04-19T07:54:20.142Z,97216.00
2023-04-19T07:56:47.416Z,97210.00
2023-04-19T07:59:14.579Z,97218.00
2023-04-19T08:01:43.323Z,97223.00
2023-04-19T08:04:10.981Z,97217.00
2023-04-19T08:06:41.927Z,97219.00
2023-04-19T08:09:12.130Z,97217.00
2023-04-19T08:11:39.547Z,97220.00
2023-04-19T08:14:18.684Z,97213.00
2023-04-19T08:17:22.282Z,97210.00
2023-04-19T08:19:44.304Z,97218.00
2023-04-19T08:22:14.229Z,97210.00
2023-04-19T08:24:41.746Z,97209.00
2023-04-19T08:27:13.335Z,97215.00
2023-04-19T08:29:49.880Z,97213.00
2023-04-19T08:32:23.226Z,97212.00
2023-04-19T08:34:50.755Z,97216.00
2023-04-19T08:37:23.841Z,97216.00
2023-04-19T08:39:54.267Z,97213.00
2023-04-19T08:42:33.233Z,97211.00
2023-04-19T08:50:28.319Z,97207.00
2023-04-19T08:55:59.234Z,97217.00
2023-04-19T09:01:26.235Z,97208.00
2023-04-19T09:04:09.579Z,97201.00
2023-04-19T09:06:51.480Z,97208.00
2023-04-19T09:09:45.717Z,97207.00
2023-04-19T09:12:19.442Z,97202.00
2023-04-19T09:15:00.716Z,97204.00
2023-04-19T09:17:30.507Z,97202.00
2023-04-19T09:20:02.929Z,97194.00
2023-04-19T09:22:39.709Z,97189.00
2023-04-19T09:28:05.035Z,97189.00
2023-04-19T09:30:35.964Z,97190.00
2023-04-19T09:33:12.278Z,97188.00
2023-04-19T09:35:43.568Z,97183.00
2023-04-19T09:38:11.378Z,97191.00
2023-04-19T09:40:47.178Z,97175.00
2023-04-19T09:43:40.451Z,97173.00
2023-04-19T09:46:15.017Z,97174.00
2023-04-19T09:48:42.531Z,97166.00
2023-04-19T09:51:12.954Z,97171.00
2023-04-19T09:53:43.291Z,97168.00
2023-04-19T09:56:13.919Z,97162.00
2023-04-19T09:58:50.033Z,97166.00
2023-04-19T10:01:20.792Z,97168.00
2023-04-19T10:03:53.453Z,97162.00
2023-04-19T10:06:36.008Z,97154.00
2023-04-19T10:09:11.993Z,97163.00
2023-04-19T10:11:48.257Z,97156.00
2023-04-19T10:14:36.220Z,97149.00
2023-04-19T10:17:06.373Z,97157.00
2023-04-19T10:19:36.637Z,97150.00
2023-04-19T10:22:07.904Z,97150.00
2023-04-19T10:24:35.353Z,97158.00
2023-04-19T10:27:14.846Z,97151.00
2023-04-19T10:30:07.492Z,97151.00
2023-04-19T10:32:42.418Z,97148.00
2023-04-19T10:35:26.597Z,97134.00
2023-04-19T10:38:15.290Z,97129.00
2023-04-19T10:41:01.918Z,97136.00
2023-04-19T10:43:30.461Z,97133.00
2023-04-19T10:46:28.495Z,97134.00
2023-04-19T10:49:03.725Z,97134.00
2023-04-19T10:51:44.299Z,97138.00
2023-04-19T10:54:36.641Z,97127.00
2023-04-19T10:57:08.904Z,97123.00
2023-04-19T10:59:42.462Z,97125.00
2023-04-19T11:02:26.271Z,97118.00
2023-04-19T11:04:53.956Z,97117.00
2023-04-19T11:07:21.654Z,97120.00
2023-04-19T11:09:50.302Z,97116.00
2023-04-19T11:12:25.566Z,97110.00
2023-04-19T11:15:00.174Z,97112.00
2023-04-19T11:17:39.751Z,97107.00
2023-04-19T11:20:14.792Z,97101.00
2023-04-19T11:22:52.765Z,97103.00
2023-04-19T11:25:24.202Z,97106.00
2023-04-19T11:28:02.057Z,97098.00
2023-04-19T11:30:38.425Z,97091.00
2023-04-19T11:33:09.090Z,97093.00
2023-04-19T11:35:39.883Z,97090.00
2023-04-19T11:38:07.613Z,97088.00
2023-04-19T11:40:40.230Z,97085.00
2023-04-19T11:43:07.687Z,97079.00
2023-04-19T11:45:39.579Z,97087.00
2023-04-19T11:48:14.208Z,97081.00
2023-04-19T11:50:43.453Z,97081.00
2023-04-19T11:53:22.319Z,97086.00
2023-04-19T11:55:51.561Z,97081.00
2023-04-19T11:58:39.990Z,97074.00
2023-04-19T12:01:13.315Z,97074.00
2023-04-19T12:03:50.607Z,97074.00
2023-04-19T12:06:27.092Z,97077.00
2023-04-19T12:08:58.524Z,97076.00
2023-04-19T12:11:42.064Z,97071.00
2023-04-19T12:14:10.686Z,97072.00
2023-04-19T12:16:38.977Z,97071.00
2023-04-19T12:19:18.082Z,97069.00
2023-04-19T12:21:48.994Z,97068.00
2023-04-19T12:24:20.450Z,97074.00
2023-04-19T12:26:59.068Z,97067.00
2023-04-19T12:29:33.577Z,97057.00
2023-04-19T12:32:06.583Z,97064.00
2023-04-19T12:37:23.320Z,97055.00
2023-04-19T12:39:53.739Z,97051.00
2023-04-19T12:42:36.606Z,97054.00
2023-04-19T12:45:18.142Z,97053.00
2023-04-19T12:47:56.441Z,97051.00
2023-04-19T12:50:31.453Z,97043.00
2023-04-19T12:53:17.005Z,97042.00
2023-04-19T12:55:49.253Z,97047.00
2023-04-19T12:58:18.087Z,97040.00
2023-04-19T13:00:48.819Z,97042.00
2023-04-19T13:03:19.342Z,97037.00
2023-04-19T13:05:52.395Z,97034.00
2023-04-19T13:08:41.423Z,97033.00
2023-04-19T13:11:11.243Z,97024.00
2023-04-19T13:13:41.196Z,97029.00
2023-04-19T13:16:11.583Z,97016.00
2023-04-19T13:18:39.384Z,97007.00
2023-04-19T13:21:08.447Z,96999.00
2023-04-19T13:23:36.491Z,97003.00
2023-04-19T13:26:09.066Z,96993.00
2023-04-19T13:28:40.213Z,96998.00
2023-04-19T13:31:07.661Z,96988.00
2023-04-19T13:33:35.286Z,96996.00
2023-04-19T13:36:02.800Z,96987.00
2023-04-19T13:38:30.511Z,96986.00
2023-04-19T13:41:03.991Z,96979.00
2023-04-19T13:43:34.546Z,96982.00
2023-04-19T13:46:10.216Z,96981.00
2023-04-19T13:48:40.284Z,96972.00
2023-04-19T13:51:08.442Z,96962.00
2023-04-19T13:53:40.564Z,96958.00
2023-04-19T13:56:09.876Z,96953.00
2023-04-19T13:58:37.453Z,96942.00
2023-04-19T14:01:04.857Z,96938.00
2023-04-19T14:03:32.561Z,96944.00
2023-04-19T14:05:59.988Z,96940.00
2023-04-19T14:08:27.173Z,96951.00
2023-04-19T14:10:54.558Z,96937.00
2023-04-19T14:13:21.779Z,96932.00
2023-04-19T14:15:48.981Z,96937.00
2023-04-19T14:18:16.220Z,96936.00
2023-04-19T14:20:43.463Z,96936.00
2023-04-19T14:23:16.320Z,96927.00
2023-04-19T14:25:46.571Z,96930.00
2023-04-19T14:28:17.032Z,96926.00
2023-04-19T14:30:46.895Z,96918.00
2023-04-19T14:33:17.384Z,96923.00
2023-04-19T14:35:48.602Z,96918.00
2023-04-19T14:38:18.225Z,96916.00
2023-04-19T14:40:52.946Z,96910.00
2023-04-19T14:43:22.578Z,96914.00
2023-04-19T14:45:57.642Z,96913.00
2023-04-19T14:48:30.053Z,96901.00
2023-04-19T14:50:57.219Z,96912.00
2023-04-19T14:53:24.443Z,96910.00
2023-04-19T14:55:51.621Z,96902.00
2023-04-19T14:58:18.796Z,96902.00
2023-04-19T15:00:46.317Z,96908.00
2023-04-19T15:03:13.852Z,96896.00
2023-04-19T15:05:41.282Z,96893.00
2023-04-19T15:08:17.401Z,96891.00
2023-04-19T15:10:54.251Z,96884.00
2023-04-19T15:13:21.612Z,96883.00
2023-04-19T15:15:48.923Z,96889.00
2023-04-19T15:18:16.243Z,96889.00
2023-04-19T15:20:43.698Z,96886.00
2023-04-19T15:23:10.871Z,96893.00
2023-04-19T15:25:38.121Z,96889.00
2023-04-19T15:28:05.526Z,96885.00
2023-04-19T15:30:32.727Z,96888.00
2023-04-19T15:33:00.047Z,96876.00
2023-04-19T15:35:27.286Z,96886.00
2023-04-19T15:37:54.481Z,96887.00
2023-04-19T15:40:23.058Z,96885.00
2023-04-19T15:42:50.238Z,96886.00
2023-04-19T15:45:17.525Z,96891.00
2023-04-19T15:47:44.738Z,96890.00
2023-04-19T15:50:11.996Z,96891.00
2023-04-19T15:52:39.242Z,96898.00
2023-04-19T15:55:06.735Z,96897.00
2023-04-19T15:57:33.927Z,96897.00
2023-04-19T16:00:01.092Z,96898.00
2023-04-19T16:02:28.427Z,96899.00
2023-04-19T16:04:55.941Z,96897.00
2023-04-19T16:07:23.244Z,96902.00
2023-04-19T16:09:50.599Z,96899.00
2023-04-19T16:12:17.889Z,96893.00
2023-04-19T16:14:45.071Z,96904.00
2023-04-19T16:17:12.254Z,96904.00
2023-04-19T16:19:39.452Z,96898.00
2023-04-19T16:22:06.628Z,96903.00
2023-04-19T16:24:33.852Z,96905.00
2023-04-19T16:27:01.306Z,96909.00
2023-04-19T16:29:28.566Z,96903.00
2023-04-19T16:31:55.799Z,96904.00
2023-04-19T16:34:25.357Z,96907.00
2023-04-19T16:36:55.938Z,96903.00
2023-04-19T16:39:23.118Z,96904.00
2023-04-19T16:41:50.376Z,96902.00
2023-04-19T16:44:17.637Z,96905.00
2023-04-19T16:46:44.815Z,96901.00
2023-04-19T16:49:12.087Z,96903.00
2023-04-19T16:51:39.331Z,96905.00
2023-04-19T16:54:06.610Z,96901.00
2023-04-19T16:56:33.869Z,96900.00
2023-04-19T16:59:01.348Z,96898.00
2023-04-19T17:01:28.632Z,96905.00
2023-04-19T17:03:56.226Z,96898.00
2023-04-19T17:06:23.569Z,96893.00
2023-04-19T17:08:50.888Z,96897.00
2023-04-19T17:11:18.057Z,96904.00
2023-04-19T17:13:45.232Z,96893.00
2023-04-19T17:16:12.455Z,96899.00
2023-04-19T17:18:39.703Z,96891.00
2023-04-19T17:21:07.405Z,96893.00
2023-04-19T17:23:34.558Z,96898.00
2023-04-19T17:26:01.743Z,96892.00
2023-04-19T17:28:28.935Z,96883.00
2023-04-19T17:30:56.459Z,96888.00
2023-04-19T17:33:23.782Z,96880.00
2023-04-19T17:35:51.238Z,96883.00
2023-04-19T17:38:18.425Z,96886.00
2023-04-19T17:40:45.645Z,96896.00
2023-04-19T17:43:13.764Z,96892.00
2023-04-19T17:45:40.945Z,96879.00
2023-04-19T17:48:08.245Z,96882.00
2023-04-19T17:50:35.859Z,96891.00
2023-04-19T17:53:03.115Z,96885.00
2023-04-19T17:55:30.380Z,96891.00
2023-04-19T17:57:57.586Z,96894.00
2023-04-19T18:00:24.942Z,96891.00
2023-04-19T18:02:52.296Z,96898.00
2023-04-19T18:05:19.580Z,96894.00
2023-04-19T18:07:47.028Z,96894.00
2023-04-19T18:10:14.224Z,96894.00
2023-04-19T18:12:41.488Z,96892.00
2023-04-19T18:15:09.101Z,96893.00
2023-04-19T18:17:36.512Z,96898.00
2023-04-19T18:20:06.787Z,96890.00
2023-04-19T18:22:33.993Z,96895.00
2023-04-19T18:25:01.248Z,96897.00
2023-04-19T18:27:29.700Z,96890.00
2023-04-19T18:29:58.930Z,96886.00
2023-04-19T18:32:28.648Z,96898.00
2023-04-19T18:34:55.904Z,96897.00
2023-04-19T18:37:23.100Z,96892.00
2023-04-19T18:39:50.424Z,96891.00
2023-04-19T18:42:18.081Z,96894.00
2023-04-19T18:44:53.932Z,96896.00
2023-04-19T18:47:22.163Z,96904.00
2023-04-19T18:50:03.520Z,96901.00
2023-04-19T18:52:32.991Z,96905.00
2023-04-19T18:55:00.642Z,96914.00
2023-04-19T18:57:28.206Z,96917.00
2023-04-19T18:59:58.829Z,96919.00
2023-04-19T19:02:27.551Z,96923.00
2023-04-19T19:04:57.829Z,96934.00
2023-04-19T19:09:57.026Z,96920.00
2023-04-19T19:12:24.443Z,96921.00
2023-04-19T19:14:52.004Z,96925.00
2023-04-19T19:17:19.362Z,96920.00
2023-04-19T19:19:46.556Z,96926.00
2023-04-19T19:24:43.865Z,96916.00
2023-04-19T19:27:11.219Z,96922.00
2023-04-19T19:29:38.396Z,96926.00
2023-04-19T19:32:08.189Z,96935.00
2023-04-19T19:34:51.168Z,96928.00
2023-04-19T19:37:21.544Z,96921.00
2023-04-19T19:39:48.735Z,96917.00
2023-04-19T19:42:19.116Z,96926.00
2023-04-19T19:44:46.364Z,96928.00
2023-04-19T19:47:15.307Z,96927.00
2023-04-19T19:50:08.843Z,96930.00
2023-04-19T19:52:31.955Z,96923.00
2023-04-19T19:54:59.860Z,96919.00
2023-04-19T20:00:03.133Z,96928.00
2023-04-19T20:02:54.696Z,96925.00
2023-04-19T20:05:23.396Z,96927.00
2023-04-19T20:10:21.269Z,96925.00
2023-04-19T20:12:48.555Z,96923.00
2023-04-19T20:15:15.881Z,96929.00
2023-04-19T20:17:44.183Z,96931.00
2023-04-19T20:20:12.028Z,96926.00
2023-04-19T20:22:39.209Z,96913.00
2023-04-19T20:25:06.762Z,96915.00
2023-04-19T20:27:34.166Z,96918.00
2023-04-19T20:30:01.373Z,96917.00
2023-04-19T20:32:28.639Z,96918.00
2023-04-19T20:34:55.860Z,96916.00
2023-04-19T20:37:23.366Z,96920.00
2023-04-19T20:39:50.650Z,96917.00
2023-04-19T20:42:17.866Z,96914.00
2023-04-19T20:44:45.053Z,96917.00
2023-04-19T20:47:12.932Z,96908.00
2023-04-19T20:49:40.995Z,96904.00
2023-04-19T20:52:08.213Z,96907.00
2023-04-19T20:54:36.556Z,96913.00
2023-04-19T20:57:04.630Z,96913.00
2023-04-19T20:59:32.040Z,96912.00
2023-04-19T21:02:00.109Z,96915.00
2023-04-19T21:04:27.866Z,96912.00
2023-04-19T21:06:55.185Z,96916.00
2023-04-19T21:09:22.570Z,96909.00
2023-04-19T21:11:49.780Z,96914.00
2023-04-19T21:14:16.981Z,96909.00
2023-04-19T21:16:44.120Z,96902.00
2023-04-19T21:19:11.302Z,96902.00
2023-04-19T21:21:38.502Z,96899.00
2023-04-19T21:24:06.774Z,96888.00
2023-04-19T21:26:33.990Z,96891.00
2023-04-19T21:29:01.187Z,96903.00
2023-04-19T21:31:28.375Z,96899.00
2023-04-19T21:33:55.737Z,96900.00
2023-04-19T21:36:22.904Z,96897.00
2023-04-19T21:38:50.196Z,96890.00
2023-04-19T21:41:17.377Z,96900.00
2023-04-19T21:43:45.346Z,96890.00
2023-04-19T21:46:12.571Z,96897.00
2023-04-19T21:48:39.810Z,96896.00
2023-04-19T21:51:07.027Z,96897.00
2023-04-19T21:53:34.209Z,96888.00
2023-04-19T21:56:02.915Z,96889.00
2023-04-19T21:58:30.167Z,96890.00
2023-04-19T22:00:57.430Z,96890.00
2023-04-19T22:03:24.826Z,96898.00
2023-04-19T22:05:52.122Z,96887.00
2023-04-19T22:08:19.353Z,96890.00
2023-04-19T22:10:46.560Z,96891.00
2023-04-19T22:13:14.023Z,96892.00
2023-04-19T22:15:42.487Z,96885.00
2023-04-19T22:18:09.991Z,96884.00
2023-04-19T22:20:38.342Z,96880.00
2023-04-19T22:23:05.567Z,96877.00
2023-04-19T22:25:32.742Z,96875.00
2023-04-19T22:27:59.952Z,96882.00
2023-04-19T22:30:27.262Z,96877.00
2023-04-19T22:32:54.538Z,96881.00
2023-04-19T22:35:22.878Z,96886.00
2023-04-19T22:37:50.398Z,96880.00
2023-04-19T22:40:17.559Z,96866.00
2023-04-19T22:42:44.734Z,96874.00
2023-04-19T22:45:12.024Z,96870.00
2023-04-19T22:47:39.327Z,96868.00
2023-04-19T22:50:07.505Z,96867.00
2023-04-19T22:52:35.183Z,96863.00
2023-04-19T22:55:02.371Z,96864.00
2023-04-19T22:57:29.603Z,96862.00
2023-04-19T22:59:56.837Z,96853.00
2023-04-19T23:02:24.038Z,96847.00
2023-04-19T23:04:52.071Z,96844.00
2023-04-19T23:07:20.905Z,96838.00
2023-04-19T23:09:48.206Z,96835.00
2023-04-19T23:12:15.694Z,96834.00
2023-04-19T23:14:43.116Z,96836.00
2023-04-19T23:17:10.329Z,96825.00
2023-04-19T23:19:38.728Z,96821.00
2023-04-19T23:22:06.334Z,96824.00
2023-04-19T23:24:36.013Z,96818.00
2023-04-19T23:27:03.539Z,96814.00
2023-04-19T23:29:30.887Z,96807.00
2023-04-19T23:31:58.524Z,96807.00
2023-04-19T23:34:25.854Z,96801.00
2023-04-19T23:36:53.047Z,96805.00
2023-04-19T23:39:20.380Z,96797.00
2023-04-19T23:41:47.681Z,96808.00
2023-04-19T23:44:14.974Z,96802.00
2023-04-19T23:46:42.187Z,96804.00
2023-04-19T23:49:09.425Z,96795.00
2023-04-19T23:51:36.969Z,96797.00
2023-04-19T23:54:04.285Z,96796.00
2023-04-19T23:56:31.560Z,96789.00
2023-04-19T23:58:58.802Z,96789.00
